createdAt,value
2018-11-20T00:00:07.365Z,7.17
2018-11-20T00:03:02.849Z,7.63
2018-11-20T00:05:51.654Z,7.17
2018-11-20T00:08:42.533Z,8.67
2018-11-20T00:11:50.198Z,8.07
2018-11-20T00:14:38.758Z,8.00
2018-11-20T00:17:26.434Z,9.27
2018-11-20T00:20:15.196Z,8.50
2018-11-20T00:23:18.185Z,9.60
2018-11-20T00:26:06.970Z,8.50
2018-11-20T00:29:14.429Z,8.73
2018-11-20T00:32:05.298Z,8.70
2018-11-20T00:35:14.261Z,9.50
2018-11-20T00:38:03.769Z,7.67
2018-11-20T00:40:52.294Z,8.77
2018-11-20T00:43:40.848Z,8.50
2018-11-20T00:46:41.269Z,9.10
2018-11-20T00:52:13.259Z,9.13
2018-11-20T00:55:02.007Z,9.00
2018-11-20T00:57:53.122Z,10.33
2018-11-20T01:06:41.893Z,10.53
2018-11-20T01:09:30.382Z,11.67
2018-11-20T01:12:09.259Z,12.33
2018-11-20T01:14:57.830Z,13.40
2018-11-20T01:17:46.415Z,12.33
2018-11-20T01:23:44.706Z,14.67
2018-11-20T01:26:20.865Z,14.83
2018-11-20T01:29:09.690Z,14.07
2018-11-20T01:31:58.301Z,14.37
2018-11-20T01:34:59.545Z,14.63
2018-11-20T01:37:43.000Z,16.03
2018-11-20T01:40:46.986Z,20.53
2018-11-20T01:43:37.974Z,15.13
2018-11-20T01:46:28.757Z,13.83
2018-11-20T01:49:36.163Z,17.13
2018-11-20T01:52:43.649Z,16.83
2018-11-20T01:55:33.126Z,18.87
2018-11-20T01:58:22.031Z,16.53
2018-11-20T02:01:13.830Z,16.63
2018-11-20T02:04:21.352Z,18.77
2018-11-20T02:07:10.342Z,18.40
2018-11-20T02:09:59.213Z,18.23
2018-11-20T02:12:41.352Z,19.53
2018-11-20T02:15:30.201Z,17.63
2018-11-20T02:18:23.999Z,20.20
2018-11-20T02:21:29.398Z,18.90
2018-11-20T02:27:31.914Z,20.43
2018-11-20T02:30:20.461Z,17.67
2018-11-20T02:33:13.489Z,18.80
2018-11-20T02:36:02.380Z,20.10
2018-11-20T02:39:06.293Z,17.97
2018-11-20T02:42:01.681Z,18.47
2018-11-20T02:45:12.980Z,21.63
2018-11-20T02:50:55.610Z,20.03
2018-11-20T02:53:44.077Z,22.07
2018-11-20T02:59:40.219Z,23.30
2018-11-20T03:02:36.594Z,20.60
2018-11-20T03:05:25.614Z,21.10
2018-11-20T03:08:45.769Z,22.80
2018-11-20T03:11:34.240Z,21.83
2018-11-20T03:14:23.240Z,20.63
2018-11-20T03:17:13.980Z,24.43
2018-11-20T03:20:02.677Z,21.47
2018-11-20T03:22:51.440Z,21.70
2018-11-20T03:25:59.367Z,21.87
2018-11-20T03:28:52.940Z,20.70
2018-11-20T03:31:45.396Z,21.87
2018-11-20T03:34:33.915Z,22.63
2018-11-20T03:37:22.479Z,22.67
2018-11-20T03:40:10.999Z,23.77
2018-11-20T03:43:00.020Z,22.67
2018-11-20T03:45:49.288Z,25.97
2018-11-20T03:48:37.844Z,23.73
2018-11-20T03:51:26.459Z,23.30
2018-11-20T03:54:06.828Z,23.50
2018-11-20T03:56:55.420Z,24.30
2018-11-20T04:00:14.994Z,23.50
2018-11-20T04:03:04.554Z,21.20
2018-11-20T04:05:53.427Z,23.10
2018-11-20T04:08:42.312Z,22.53
2018-11-20T04:11:33.766Z,23.63
2018-11-20T04:14:22.686Z,21.23
2018-11-20T04:17:11.185Z,22.00
2018-11-20T04:19:59.679Z,20.73
2018-11-20T04:22:48.509Z,23.00
2018-11-20T04:25:37.093Z,21.40
2018-11-20T04:28:27.251Z,23.47
2018-11-20T04:31:53.594Z,23.13
2018-11-20T04:34:42.249Z,22.43
2018-11-20T04:37:30.794Z,19.70
2018-11-20T04:40:19.433Z,21.83
2018-11-20T04:43:09.086Z,20.63
2018-11-20T04:45:58.063Z,20.07
2018-11-20T04:48:48.913Z,20.77
2018-11-20T04:51:57.432Z,19.10
2018-11-20T04:55:08.049Z,21.67
2018-11-20T04:57:57.783Z,22.03
2018-11-20T05:00:48.666Z,18.83
2018-11-20T05:03:37.216Z,19.67
2018-11-20T05:06:26.006Z,16.77
2018-11-20T05:09:14.659Z,18.93
2018-11-20T05:12:05.255Z,19.63
2018-11-20T05:18:20.690Z,16.73
2018-11-20T05:21:09.390Z,15.57
2018-11-20T05:23:58.767Z,14.33
2018-11-20T05:26:47.667Z,17.30
2018-11-20T05:29:38.686Z,16.40
2018-11-20T05:32:27.385Z,15.37
2018-11-20T05:35:15.918Z,15.13
2018-11-20T05:38:21.978Z,16.07
2018-11-20T05:41:25.142Z,16.93
2018-11-20T05:44:28.180Z,16.10
2018-11-20T05:47:16.663Z,16.03
2018-11-20T05:50:05.146Z,17.87
2018-11-20T05:52:53.601Z,18.50
2018-11-20T05:55:44.297Z,14.77
2018-11-20T05:58:54.082Z,17.07
2018-11-20T06:01:43.073Z,15.37
2018-11-20T06:04:31.559Z,15.10
2018-11-20T06:07:20.200Z,16.33
2018-11-20T06:10:09.848Z,19.03
2018-11-20T06:12:58.334Z,16.43
2018-11-20T06:15:47.017Z,15.87
2018-11-20T06:18:35.611Z,19.73
2018-11-20T06:21:24.640Z,15.50
2018-11-20T06:24:18.240Z,18.60
2018-11-20T06:27:07.878Z,16.83
2018-11-20T06:29:57.257Z,18.67
2018-11-20T06:32:38.160Z,17.17
2018-11-20T06:35:27.066Z,19.53
2018-11-20T06:38:18.243Z,22.67
2018-11-20T06:41:06.897Z,19.93
2018-11-20T06:43:56.104Z,19.73
2018-11-20T06:46:44.577Z,18.90
2018-11-20T06:49:33.235Z,20.13
2018-11-20T06:52:40.855Z,22.83
2018-11-20T06:55:48.940Z,19.83
2018-11-20T06:58:38.064Z,20.87
2018-11-20T07:01:26.756Z,22.90
2018-11-20T07:04:15.287Z,20.87
2018-11-20T07:07:03.858Z,20.47
2018-11-20T07:10:14.878Z,22.03
2018-11-20T07:13:05.002Z,23.13
2018-11-20T07:16:31.526Z,20.30
2018-11-20T07:19:40.271Z,19.97
2018-11-20T07:22:30.330Z,20.80
2018-11-20T07:25:19.146Z,20.53
2018-11-20T07:28:12.670Z,21.73
2018-11-20T07:31:03.756Z,21.30
2018-11-20T07:33:44.412Z,22.20
2018-11-20T07:36:42.450Z,21.17
2018-11-20T07:39:33.779Z,23.77
2018-11-20T07:42:22.726Z,19.27
2018-11-20T07:45:11.344Z,20.20
2018-11-20T07:47:59.765Z,19.57
2018-11-20T07:50:49.461Z,20.40
2018-11-20T07:53:38.071Z,20.13
2018-11-20T07:56:17.790Z,20.57
2018-11-20T08:05:21.409Z,20.03
2018-11-20T08:07:58.956Z,19.97
2018-11-20T08:11:06.857Z,24.23
2018-11-20T08:13:55.292Z,24.73
2018-11-20T08:19:52.965Z,21.83
2018-11-20T08:22:41.996Z,24.40
2018-11-20T08:25:34.016Z,21.57
2018-11-20T08:28:22.616Z,21.33
2018-11-20T08:31:11.375Z,20.33
2018-11-20T08:34:20.082Z,21.03
2018-11-20T08:37:13.062Z,20.80
2018-11-20T08:40:01.697Z,22.87
2018-11-20T08:46:02.212Z,20.37
2018-11-20T08:48:51.370Z,20.73
2018-11-20T08:51:42.211Z,18.93
2018-11-20T08:54:31.890Z,18.63
2018-11-20T08:57:20.340Z,22.63
2018-11-20T09:00:09.007Z,23.43
2018-11-20T09:02:58.533Z,20.83
2018-11-20T09:06:01.238Z,23.00
2018-11-20T09:08:49.921Z,21.03
2018-11-20T09:11:38.664Z,22.20
2018-11-20T09:14:29.670Z,22.03
2018-11-20T09:17:39.949Z,19.93
2018-11-20T09:20:28.816Z,20.10
2018-11-20T09:23:17.194Z,20.90
2018-11-20T09:26:05.766Z,20.27
2018-11-20T09:28:54.347Z,22.77
2018-11-20T09:31:42.917Z,19.50
2018-11-20T09:34:33.309Z,21.93
2018-11-20T09:37:21.932Z,20.73
2018-11-20T09:40:51.088Z,22.30
2018-11-20T09:43:40.872Z,22.93
2018-11-20T09:46:37.314Z,21.93
2018-11-20T09:49:26.646Z,23.63
2018-11-20T09:52:27.932Z,22.90
2018-11-20T09:55:16.527Z,20.83
2018-11-20T09:57:59.632Z,19.57
2018-11-20T10:00:48.379Z,19.30
2018-11-20T10:03:37.012Z,23.17
2018-11-20T10:06:35.708Z,23.73
2018-11-20T10:09:27.422Z,24.00
2018-11-20T10:12:16.043Z,22.17
2018-11-20T10:15:00.036Z,23.53
2018-11-20T10:17:51.024Z,23.00
2018-11-20T10:20:40.057Z,22.37
2018-11-20T10:23:23.260Z,21.53
2018-11-20T10:26:12.069Z,21.60
2018-11-20T10:29:00.971Z,23.17
2018-11-20T10:31:49.807Z,20.97
2018-11-20T10:34:38.524Z,23.43
2018-11-20T10:37:19.131Z,19.93
2018-11-20T10:40:08.771Z,25.17
2018-11-20T10:42:59.818Z,24.37
2018-11-20T10:45:48.901Z,22.13
2018-11-20T10:48:56.372Z,21.37
2018-11-20T10:51:34.874Z,22.33
2018-11-20T10:54:23.881Z,24.97
2018-11-20T10:57:12.306Z,21.33
2018-11-20T11:03:19.977Z,25.53
2018-11-20T11:06:09.964Z,21.67
2018-11-20T11:09:13.210Z,19.53
2018-11-20T11:12:20.736Z,21.87
2018-11-20T11:15:09.465Z,20.73
2018-11-20T11:18:20.183Z,19.63
2018-11-20T11:21:01.293Z,23.27
2018-11-20T11:23:49.738Z,23.57
2018-11-20T11:26:38.422Z,21.80
2018-11-20T11:29:27.192Z,20.10
2018-11-20T11:32:16.038Z,22.03
2018-11-20T11:35:25.737Z,20.43
2018-11-20T11:38:14.993Z,21.77
2018-11-20T11:41:03.871Z,18.87
2018-11-20T11:43:52.638Z,22.30
2018-11-20T11:46:41.238Z,24.07
2018-11-20T11:49:30.312Z,20.37
2018-11-20T11:52:25.419Z,22.23
2018-11-20T11:55:14.725Z,21.47
2018-11-20T11:58:03.417Z,24.53
2018-11-20T12:01:14.049Z,24.60
2018-11-20T12:06:50.746Z,24.00
2018-11-20T12:09:51.677Z,23.17
2018-11-20T12:12:40.459Z,20.40
2018-11-20T12:18:15.717Z,21.57
2018-11-20T12:21:04.355Z,27.67
2018-11-20T12:23:53.121Z,22.23
2018-11-20T12:26:41.739Z,20.20
2018-11-20T12:29:34.729Z,20.27
2018-11-20T12:32:19.934Z,20.73
2018-11-20T12:35:33.118Z,21.00
2018-11-20T12:38:04.475Z,21.40
2018-11-20T12:40:53.161Z,21.30
2018-11-20T12:43:41.977Z,24.97
2018-11-20T12:46:22.925Z,24.03
2018-11-20T12:49:11.870Z,21.17
2018-11-20T12:52:02.556Z,20.30
2018-11-20T12:54:52.518Z,19.20
2018-11-20T12:58:00.259Z,21.07
2018-11-20T13:00:49.889Z,23.50
2018-11-20T13:03:38.705Z,24.13
2018-11-20T13:06:34.800Z,21.47
2018-11-20T13:09:35.246Z,20.87
2018-11-20T13:12:24.970Z,23.03
2018-11-20T13:15:13.508Z,23.47
2018-11-20T13:18:03.597Z,21.03
2018-11-20T13:21:11.105Z,21.40
2018-11-20T13:23:59.137Z,20.43
2018-11-20T13:26:47.763Z,23.13
2018-11-20T13:29:36.370Z,22.20
2018-11-20T13:32:25.282Z,23.73
2018-11-20T13:35:14.778Z,23.73
2018-11-20T13:38:03.423Z,24.57
2018-11-20T13:41:30.577Z,26.03
2018-11-20T13:44:39.670Z,24.43
2018-11-20T13:47:27.121Z,23.60
2018-11-20T13:50:35.553Z,24.87
2018-11-20T13:53:24.107Z,24.00
2018-11-20T13:56:12.774Z,25.77
2018-11-20T13:59:01.418Z,26.63
2018-11-20T14:01:50.609Z,25.40
2018-11-20T14:04:41.681Z,23.40
2018-11-20T14:10:11.383Z,23.10
2018-11-20T14:13:00.810Z,24.23
2018-11-20T14:15:49.549Z,27.07
2018-11-20T14:18:38.064Z,24.53
2018-11-20T14:21:27.693Z,24.77
2018-11-20T14:24:16.194Z,27.33
2018-11-20T14:27:04.806Z,26.37
2018-11-20T14:29:53.423Z,22.27
2018-11-20T14:32:42.535Z,28.27
2018-11-20T14:38:39.183Z,26.83
2018-11-20T14:41:28.186Z,30.10
2018-11-20T14:44:16.778Z,26.23
2018-11-20T14:47:05.422Z,27.73
2018-11-20T14:49:54.070Z,31.30
2018-11-20T14:52:43.482Z,28.50
2018-11-20T14:55:37.978Z,28.63
2018-11-20T14:58:46.064Z,29.97
2018-11-20T15:01:34.585Z,28.53
2018-11-20T15:04:43.062Z,27.70
2018-11-20T15:07:36.106Z,29.07
2018-11-20T15:10:24.974Z,30.03
2018-11-20T15:13:14.321Z,27.13
2018-11-20T15:16:02.889Z,26.90
2018-11-20T15:18:51.498Z,31.87
2018-11-20T15:21:40.082Z,26.97
2018-11-20T15:24:29.052Z,26.23
2018-11-20T15:27:17.607Z,26.30
2018-11-20T15:30:06.282Z,23.77
2018-11-20T15:32:54.892Z,26.00
2018-11-20T15:35:44.386Z,27.17
2018-11-20T15:38:26.221Z,24.47
2018-11-20T15:41:14.748Z,24.40
2018-11-20T15:44:04.392Z,21.10
2018-11-20T15:46:55.927Z,23.87
2018-11-20T15:49:44.523Z,23.20
2018-11-20T15:52:33.128Z,25.53
2018-11-20T15:55:22.673Z,19.90
2018-11-20T15:58:32.112Z,23.27
2018-11-20T16:01:23.283Z,21.40
2018-11-20T16:04:08.968Z,19.77
2018-11-20T16:07:17.000Z,20.07
2018-11-20T16:10:05.687Z,19.10
2018-11-20T16:12:54.265Z,15.80
2018-11-20T16:15:43.089Z,14.87
2018-11-20T16:18:32.035Z,17.50
2018-11-20T16:21:22.504Z,13.47
2018-11-20T16:24:11.053Z,13.17
2018-11-20T16:26:59.679Z,12.90
2018-11-20T16:29:48.594Z,13.07
2018-11-20T16:32:37.368Z,13.23
2018-11-20T16:35:44.880Z,15.03
2018-11-20T16:38:33.885Z,13.37
2018-11-20T16:41:22.682Z,9.07
2018-11-20T16:44:14.178Z,10.33
2018-11-20T16:47:03.067Z,8.87
2018-11-20T16:49:51.917Z,8.23
2018-11-20T16:53:06.259Z,7.90
2018-11-20T16:56:16.038Z,8.20
2018-11-20T16:59:04.699Z,8.10
2018-11-20T17:01:55.543Z,8.87
2018-11-20T17:04:44.229Z,7.40
2018-11-20T17:07:33.021Z,9.83
2018-11-20T17:10:24.235Z,6.73
2018-11-20T17:13:15.197Z,7.10
2018-11-20T17:16:04.099Z,8.67
2018-11-20T17:18:52.730Z,7.97
2018-11-20T17:21:41.317Z,8.00
2018-11-20T17:24:30.221Z,6.73
2018-11-20T17:27:30.197Z,6.67
2018-11-20T17:30:37.800Z,7.53
2018-11-20T17:33:26.386Z,9.00
2018-11-20T17:36:15.578Z,8.17
2018-11-20T17:39:04.252Z,9.97
2018-11-20T17:41:53.052Z,7.90
2018-11-20T17:44:41.658Z,8.43
2018-11-20T17:47:30.229Z,8.87
2018-11-20T17:50:20.697Z,11.17
2018-11-20T17:53:30.226Z,8.23
2018-11-20T17:56:18.652Z,10.10
2018-11-20T17:59:07.471Z,8.80
2018-11-20T18:01:56.513Z,8.93
2018-11-20T18:04:45.225Z,8.50
2018-11-20T18:07:33.812Z,9.87
2018-11-20T18:10:22.532Z,10.77
2018-11-20T18:13:11.014Z,11.17
2018-11-20T18:15:59.557Z,12.20
2018-11-20T18:18:48.330Z,13.27
2018-11-20T18:21:36.777Z,15.47
2018-11-20T18:24:25.702Z,12.80
2018-11-20T18:27:18.666Z,11.90
2018-11-20T18:32:44.281Z,14.07
2018-11-20T18:35:51.569Z,12.60
2018-11-20T18:38:40.289Z,12.70
2018-11-20T18:44:09.902Z,16.37
2018-11-20T18:46:51.241Z,14.93
2018-11-20T18:49:39.723Z,12.43
2018-11-20T18:52:28.157Z,12.03
2018-11-20T18:55:35.441Z,12.53
2018-11-20T18:58:24.127Z,13.67
2018-11-20T19:01:12.640Z,11.83
2018-11-20T19:04:01.205Z,14.97
2018-11-20T19:06:50.034Z,13.43
2018-11-20T19:09:39.612Z,16.07
2018-11-20T19:12:28.190Z,14.07
2018-11-20T19:15:16.691Z,11.90
2018-11-20T19:18:17.497Z,14.67
2018-11-20T19:20:58.160Z,14.43
2018-11-20T19:23:46.725Z,15.50
2018-11-20T19:26:35.232Z,12.73
2018-11-20T19:29:23.938Z,13.07
2018-11-20T19:32:12.619Z,14.33
2018-11-20T19:34:56.477Z,13.83
2018-11-20T19:38:23.111Z,13.97
2018-11-20T19:41:12.150Z,15.07
2018-11-20T19:44:01.160Z,15.30
2018-11-20T19:46:49.840Z,13.37
2018-11-20T19:49:39.502Z,12.57
2018-11-20T19:52:27.962Z,16.00
2018-11-20T19:55:16.711Z,14.23
2018-11-20T19:58:05.535Z,16.47
2018-11-20T20:00:54.234Z,16.80
2018-11-20T20:03:32.186Z,14.60
2018-11-20T20:06:20.939Z,17.37
2018-11-20T20:11:54.437Z,13.37
2018-11-20T20:15:05.608Z,14.30
2018-11-20T20:17:54.697Z,19.00
2018-11-20T20:20:43.405Z,15.50
2018-11-20T20:23:32.000Z,14.17
2018-11-20T20:26:24.024Z,15.57
2018-11-20T20:29:13.124Z,16.10
2018-11-20T20:31:49.679Z,16.57
2018-11-20T20:34:38.373Z,15.17
2018-11-20T20:37:27.113Z,16.87
2018-11-20T20:40:15.746Z,18.20
2018-11-20T20:43:05.294Z,16.03
2018-11-20T20:45:54.259Z,14.77
2018-11-20T20:49:01.764Z,17.33
2018-11-20T20:51:50.554Z,16.57
2018-11-20T20:54:32.536Z,17.03
2018-11-20T20:57:21.222Z,19.77
2018-11-20T21:00:09.971Z,17.57
2018-11-20T21:03:18.864Z,18.20
2018-11-20T21:06:07.406Z,18.93
2018-11-20T21:08:56.110Z,17.20
2018-11-20T21:11:37.867Z,18.40
2018-11-20T21:14:26.449Z,16.60
2018-11-20T21:17:14.964Z,18.00
2018-11-20T21:20:06.136Z,30.87
2018-11-20T21:22:54.919Z,17.90
2018-11-20T21:25:45.649Z,20.47
2018-11-20T21:28:34.200Z,19.80
2018-11-20T21:31:41.597Z,19.33
2018-11-20T21:34:30.620Z,20.10
2018-11-20T21:37:22.512Z,18.27
2018-11-20T21:40:29.985Z,20.87
2018-11-20T21:43:18.701Z,18.80
2018-11-20T21:49:33.841Z,19.83
2018-11-20T21:52:22.493Z,18.80
2018-11-20T21:55:11.177Z,18.43
2018-11-20T21:57:59.852Z,18.77
2018-11-20T22:00:53.537Z,18.10
2018-11-20T22:03:42.121Z,17.53
2018-11-20T22:06:30.745Z,18.80
2018-11-20T22:09:19.237Z,18.83
2018-11-20T22:12:08.044Z,21.00
2018-11-20T22:14:56.611Z,17.13
2018-11-20T22:17:45.271Z,18.53
2018-11-20T22:20:33.938Z,17.67
2018-11-20T22:23:33.533Z,17.70
2018-11-20T22:26:22.363Z,19.43
2018-11-20T22:29:01.913Z,20.77
2018-11-20T22:32:09.479Z,19.50
2018-11-20T22:34:58.065Z,24.77
2018-11-20T22:40:28.047Z,20.00
2018-11-20T22:43:16.521Z,18.83
2018-11-20T22:46:05.747Z,19.10
2018-11-20T22:48:55.360Z,18.00
2018-11-20T22:51:44.317Z,18.30
2018-11-20T22:54:52.753Z,18.43
2018-11-20T22:57:41.878Z,19.53
2018-11-20T23:00:32.022Z,18.37
2018-11-20T23:03:20.600Z,18.27
2018-11-20T23:06:07.164Z,19.57
2018-11-20T23:08:37.853Z,16.87
2018-11-20T23:11:07.962Z,17.83
2018-11-20T23:13:40.400Z,17.07
2018-11-20T23:16:10.658Z,18.43
2018-11-20T23:18:40.821Z,17.57
2018-11-20T23:21:11.610Z,17.83
2018-11-20T23:23:41.636Z,18.63
2018-11-20T23:26:11.604Z,16.63
2018-11-20T23:28:43.882Z,17.07
2018-11-20T23:31:14.045Z,17.30
2018-11-20T23:34:02.902Z,18.87
2018-11-20T23:36:34.064Z,16.87
2018-11-20T23:39:05.631Z,19.67
2018-11-20T23:41:35.643Z,16.33
2018-11-20T23:44:05.530Z,16.73
2018-11-20T23:46:35.574Z,17.67
2018-11-20T23:49:05.597Z,16.30
2018-11-20T23:51:54.389Z,18.10
2018-11-20T23:54:24.303Z,16.37
2018-11-20T23:56:54.281Z,16.77
2018-11-20T23:59:24.140Z,15.83
